sensor_id;sensor_type;location;lat;lon;timestamp;pressure;altitude;pressure_sealevel;temperature;humidity
4972;BME280;2501;51.214;6.768;2022-12-20T00:01:36;101261.94;;;9.65;87.72
4972;BME280;2501;51.214;6.768;2022-12-20T00:04:05;101261.78;;;9.56;87.76
4972;BME280;2501;51.214;6.768;2022-12-20T00:06:34;101257.53;;;9.62;87.82
4972;BME280;2501;51.214;6.768;2022-12-20T00:09:05;101258.31;;;9.57;87.82
4972;BME280;2501;51.214;6.768;2022-12-20T00:11:34;101245.38;;;9.66;87.65
4972;BME280;2501;51.214;6.768;2022-12-20T00:14:08;101243.41;;;9.54;87.83
4972;BME280;2501;51.214;6.768;2022-12-20T00:16:37;101244.22;;;9.50;88.11
4972;BME280;2501;51.214;6.768;2022-12-20T00:19:06;101253.69;;;9.43;88.75
4972;BME280;2501;51.214;6.768;2022-12-20T00:21:34;101258.13;;;9.46;89.32
4972;BME280;2501;51.214;6.768;2022-12-20T00:24:03;101253.59;;;9.39;89.37
4972;BME280;2501;51.214;6.768;2022-12-20T00:26:33;101252.19;;;9.56;89.09
4972;BME280;2501;51.214;6.768;2022-12-20T00:29:03;101249.69;;;9.62;88.19
4972;BME280;2501;51.214;6.768;2022-12-20T00:31:34;101251.03;;;9.40;89.22
4972;BME280;2501;51.214;6.768;2022-12-20T00:34:03;101254.13;;;9.21;90.00
4972;BME280;2501;51.214;6.768;2022-12-20T00:36:32;101256.53;;;9.56;90.06
4972;BME280;2501;51.214;6.768;2022-12-20T00:39:01;101257.25;;;9.97;88.21
4972;BME280;2501;51.214;6.768;2022-12-20T00:41:31;101253.94;;;9.57;88.22
4972;BME280;2501;51.214;6.768;2022-12-20T00:44:01;101259.16;;;9.56;89.21
4972;BME280;2501;51.214;6.768;2022-12-20T00:46:30;101257.94;;;9.37;90.09
4972;BME280;2501;51.214;6.768;2022-12-20T00:49:01;101258.06;;;9.43;90.68
4972;BME280;2501;51.214;6.768;2022-12-20T00:51:30;101253.84;;;9.51;90.50
4972;BME280;2501;51.214;6.768;2022-12-20T00:53:59;101257.25;;;9.47;90.08
4972;BME280;2501;51.214;6.768;2022-12-20T00:56:27;101245.94;;;9.48;89.99
4972;BME280;2501;51.214;6.768;2022-12-20T00:58:56;101240.59;;;9.43;90.21
4972;BME280;2501;51.214;6.768;2022-12-20T01:01:26;101243.09;;;9.37;90.22
4972;BME280;2501;51.214;6.768;2022-12-20T01:03:55;101244.91;;;9.40;90.44
4972;BME280;2501;51.214;6.768;2022-12-20T01:06:27;101242.41;;;9.46;89.87
4972;BME280;2501;51.214;6.768;2022-12-20T01:08:56;101234.50;;;9.43;90.21
4972;BME280;2501;51.214;6.768;2022-12-20T01:11:27;101231.97;;;9.48;89.95
4972;BME280;2501;51.214;6.768;2022-12-20T01:13:59;101223.13;;;9.42;89.96
4972;BME280;2501;51.214;6.768;2022-12-20T01:16:31;101222.38;;;9.48;89.94
4972;BME280;2501;51.214;6.768;2022-12-20T01:19:00;101224.81;;;9.39;90.00
4972;BME280;2501;51.214;6.768;2022-12-20T01:21:32;101228.50;;;9.49;89.71
4972;BME280;2501;51.214;6.768;2022-12-20T01:24:00;101227.72;;;9.56;89.61
4972;BME280;2501;51.214;6.768;2022-12-20T01:26:29;101216.47;;;9.60;89.10
4972;BME280;2501;51.214;6.768;2022-12-20T01:28:58;101220.78;;;9.58;89.22
4972;BME280;2501;51.214;6.768;2022-12-20T01:31:28;101217.44;;;9.65;89.23
4972;BME280;2501;51.214;6.768;2022-12-20T01:33:58;101217.50;;;9.68;88.83
4972;BME280;2501;51.214;6.768;2022-12-20T01:36:31;101216.47;;;9.60;88.72
4972;BME280;2501;51.214;6.768;2022-12-20T01:39:02;101227.75;;;9.57;88.92
4972;BME280;2501;51.214;6.768;2022-12-20T01:41:33;101229.44;;;9.54;89.73
4972;BME280;2501;51.214;6.768;2022-12-20T01:44:03;101225.31;;;9.66;89.23
4972;BME280;2501;51.214;6.768;2022-12-20T01:46:35;101221.06;;;9.74;88.89
4972;BME280;2501;51.214;6.768;2022-12-20T01:49:07;101214.06;;;9.73;88.98
4972;BME280;2501;51.214;6.768;2022-12-20T01:51:43;101220.16;;;9.72;88.57
4972;BME280;2501;51.214;6.768;2022-12-20T01:54:15;101214.88;;;9.71;88.68
4972;BME280;2501;51.214;6.768;2022-12-20T01:56:48;101222.81;;;9.74;88.63
4972;BME280;2501;51.214;6.768;2022-12-20T01:59:18;101218.28;;;9.64;89.09
4972;BME280;2501;51.214;6.768;2022-12-20T02:01:48;101219.22;;;9.67;89.61
4972;BME280;2501;51.214;6.768;2022-12-20T02:04:16;101213.13;;;9.70;89.95
4972;BME280;2501;51.214;6.768;2022-12-20T02:06:47;101220.88;;;9.62;90.11
4972;BME280;2501;51.214;6.768;2022-12-20T02:09:16;101207.75;;;9.61;90.40
4972;BME280;2501;51.214;6.768;2022-12-20T02:11:53;101208.50;;;9.55;90.62
4972;BME280;2501;51.214;6.768;2022-12-20T02:14:45;101195.44;;;9.57;90.83
4972;BME280;2501;51.214;6.768;2022-12-20T02:17:22;101191.00;;;9.53;91.08
4972;BME280;2501;51.214;6.768;2022-12-20T02:20:14;101196.28;;;9.54;91.04
4972;BME280;2501;51.214;6.768;2022-12-20T02:23:07;101195.41;;;9.52;91.17
4972;BME280;2501;51.214;6.768;2022-12-20T02:25:48;101189.25;;;9.50;91.29
4972;BME280;2501;51.214;6.768;2022-12-20T02:28:38;101190.13;;;9.51;91.35
4972;BME280;2501;51.214;6.768;2022-12-20T02:31:14;101177.03;;;9.51;91.31
4972;BME280;2501;51.214;6.768;2022-12-20T02:33:46;101180.56;;;9.54;91.19
4972;BME280;2501;51.214;6.768;2022-12-20T02:36:16;101176.16;;;9.50;91.45
4972;BME280;2501;51.214;6.768;2022-12-20T02:38:45;101175.16;;;9.43;91.75
4972;BME280;2501;51.214;6.768;2022-12-20T02:41:17;101178.81;;;9.52;91.62
4972;BME280;2501;51.214;6.768;2022-12-20T02:43:49;101189.31;;;9.55;91.15
4972;BME280;2501;51.214;6.768;2022-12-20T02:46:34;101180.53;;;9.53;91.23
4972;BME280;2501;51.214;6.768;2022-12-20T02:49:07;101190.16;;;9.52;91.39
4972;BME280;2501;51.214;6.768;2022-12-20T02:51:38;101191.91;;;9.52;91.35
4972;BME280;2501;51.214;6.768;2022-12-20T02:54:08;101190.91;;;9.45;91.66
4972;BME280;2501;51.214;6.768;2022-12-20T02:56:40;101194.50;;;9.50;91.47
4972;BME280;2501;51.214;6.768;2022-12-20T02:59:13;101198.75;;;9.45;91.96
4972;BME280;2501;51.214;6.768;2022-12-20T03:01:47;101202.19;;;9.42;92.64
4972;BME280;2501;51.214;6.768;2022-12-20T03:04:18;101197.75;;;9.38;93.37
4972;BME280;2501;51.214;6.768;2022-12-20T03:06:55;101195.94;;;9.36;93.84
4972;BME280;2501;51.214;6.768;2022-12-20T03:09:24;101198.53;;;9.33;94.26
4972;BME280;2501;51.214;6.768;2022-12-20T03:11:52;101197.50;;;9.25;95.28
4972;BME280;2501;51.214;6.768;2022-12-20T03:14:21;101202.69;;;9.22;96.06
4972;BME280;2501;51.214;6.768;2022-12-20T03:16:53;101199.94;;;9.14;96.93
4972;BME280;2501;51.214;6.768;2022-12-20T03:19:21;101196.22;;;9.03;97.83
4972;BME280;2501;51.214;6.768;2022-12-20T03:21:50;101199.63;;;8.97;98.72
4972;BME280;2501;51.214;6.768;2022-12-20T03:24:19;101193.63;;;9.04;98.94
4972;BME280;2501;51.214;6.768;2022-12-20T03:26:47;101199.66;;;8.99;99.11
4972;BME280;2501;51.214;6.768;2022-12-20T03:29:16;101191.81;;;8.99;99.37
4972;BME280;2501;51.214;6.768;2022-12-20T03:31:44;101199.50;;;8.91;99.72
4972;BME280;2501;51.214;6.768;2022-12-20T03:34:15;101206.44;;;8.91;100.00
4972;BME280;2501;51.214;6.768;2022-12-20T03:36:44;101199.41;;;8.88;100.00
4972;BME280;2501;51.214;6.768;2022-12-20T03:39:12;101197.66;;;8.87;100.00
4972;BME280;2501;51.214;6.768;2022-12-20T03:41:40;101203.63;;;8.80;100.00
4972;BME280;2501;51.214;6.768;2022-12-20T03:44:09;101201.84;;;8.78;100.00
4972;BME280;2501;51.214;6.768;2022-12-20T03:46:38;101195.75;;;8.79;100.00
4972;BME280;2501;51.214;6.768;2022-12-20T03:49:06;101204.38;;;8.75;100.00
4972;BME280;2501;51.214;6.768;2022-12-20T03:51:37;101211.28;;;8.71;100.00
4972;BME280;2501;51.214;6.768;2022-12-20T03:54:05;101204.22;;;8.65;100.00
4972;BME280;2501;51.214;6.768;2022-12-20T03:56:34;101207.50;;;8.57;100.00
4972;BME280;2501;51.214;6.768;2022-12-20T03:59:03;101210.88;;;8.53;100.00
4972;BME280;2501;51.214;6.768;2022-12-20T04:01:31;101207.25;;;8.45;100.00
4972;BME280;2501;51.214;6.768;2022-12-20T04:04:01;101199.41;;;8.45;100.00
4972;BME280;2501;51.214;6.768;2022-12-20T04:06:30;101195.88;;;8.43;100.00
4972;BME280;2501;51.214;6.768;2022-12-20T04:09:01;101204.53;;;8.40;100.00
4972;BME280;2501;51.214;6.768;2022-12-20T04:11:30;101201.84;;;8.37;100.00
4972;BME280;2501;51.214;6.768;2022-12-20T04:13:58;101198.38;;;8.38;100.00
4972;BME280;2501;51.214;6.768;2022-12-20T04:16:28;101199.06;;;8.31;100.00
4972;BME280;2501;51.214;6.768;2022-12-20T04:18:57;101195.56;;;8.30;100.00
4972;BME280;2501;51.214;6.768;2022-12-20T04:21:27;101199.03;;;8.29;100.00
4972;BME280;2501;51.214;6.768;2022-12-20T04:23:57;101208.59;;;8.29;100.00
4972;BME280;2501;51.214;6.768;2022-12-20T04:26:28;101200.72;;;8.27;100.00
4972;BME280;2501;51.214;6.768;2022-12-20T04:28:57;101185.91;;;8.26;100.00
4972;BME280;2501;51.214;6.768;2022-12-20T04:31:25;101186.75;;;8.25;100.00
4972;BME280;2501;51.214;6.768;2022-12-20T04:33:54;101190.28;;;8.27;100.00
4972;BME280;2501;51.214;6.768;2022-12-20T04:36:22;101185.06;;;8.27;100.00
4972;BME280;2501;51.214;6.768;2022-12-20T04:38:51;101187.66;;;8.27;100.00
4972;BME280;2501;51.214;6.768;2022-12-20T04:41:19;101185.97;;;8.29;100.00
4972;BME280;2501;51.214;6.768;2022-12-20T04:43:55;101186.81;;;8.28;100.00
4972;BME280;2501;51.214;6.768;2022-12-20T04:46:25;101185.09;;;8.29;100.00
4972;BME280;2501;51.214;6.768;2022-12-20T04:48:53;101179.84;;;8.29;100.00
4972;BME280;2501;51.214;6.768;2022-12-20T04:51:22;101185.09;;;8.29;100.00
4972;BME280;2501;51.214;6.768;2022-12-20T04:53:50;101178.25;;;8.34;100.00
4972;BME280;2501;51.214;6.768;2022-12-20T04:56:17;101159.13;;;8.36;100.00
4972;BME280;2501;51.214;6.768;2022-12-20T04:58:47;101153.88;;;8.35;100.00
4972;BME280;2501;51.214;6.768;2022-12-20T05:01:19;101147.88;;;8.39;100.00
4972;BME280;2501;51.214;6.768;2022-12-20T05:03:48;101159.38;;;8.47;100.00
4972;BME280;2501;51.214;6.768;2022-12-20T05:06:16;101161.16;;;8.50;100.00
4972;BME280;2501;51.214;6.768;2022-12-20T05:08:45;101150.69;;;8.50;100.00
4972;BME280;2501;51.214;6.768;2022-12-20T05:11:14;101144.66;;;8.52;100.00
4972;BME280;2501;51.214;6.768;2022-12-20T05:13:42;101134.19;;;8.52;100.00
4972;BME280;2501;51.214;6.768;2022-12-20T05:16:11;101132.50;;;8.54;100.00
4972;BME280;2501;51.214;6.768;2022-12-20T05:18:41;101131.59;;;8.54;100.00
4972;BME280;2501;51.214;6.768;2022-12-20T05:21:10;101122.00;;;8.53;100.00
4972;BME280;2501;51.214;6.768;2022-12-20T05:23:53;101118.66;;;8.60;100.00
4972;BME280;2501;51.214;6.768;2022-12-20T05:26:36;101115.19;;;8.59;100.00
4972;BME280;2501;51.214;6.768;2022-12-20T05:29:05;101117.75;;;8.58;100.00
4972;BME280;2501;51.214;6.768;2022-12-20T05:31:33;101122.97;;;8.58;100.00
4972;BME280;2501;51.214;6.768;2022-12-20T05:34:04;101117.81;;;8.61;100.00
4972;BME280;2501;51.214;6.768;2022-12-20T05:36:33;101117.75;;;8.58;100.00
4972;BME280;2501;51.214;6.768;2022-12-20T05:39:01;101114.31;;;8.60;100.00
4972;BME280;2501;51.214;6.768;2022-12-20T05:41:30;101106.47;;;8.60;100.00
4972;BME280;2501;51.214;6.768;2022-12-20T05:43:59;101101.16;;;8.56;100.00
4972;BME280;2501;51.214;6.768;2022-12-20T05:46:27;101104.69;;;8.58;100.00
4972;BME280;2501;51.214;6.768;2022-12-20T05:48:56;101107.38;;;8.61;100.00
4972;BME280;2501;51.214;6.768;2022-12-20T05:51:27;101101.22;;;8.59;100.00
4972;BME280;2501;51.214;6.768;2022-12-20T05:53:55;101101.28;;;8.62;100.00
4972;BME280;2501;51.214;6.768;2022-12-20T05:56:24;101085.66;;;8.65;100.00
4972;BME280;2501;51.214;6.768;2022-12-20T05:58:53;101086.50;;;8.64;100.00
4972;BME280;2501;51.214;6.768;2022-12-20T06:01:21;101080.47;;;8.68;100.00
4972;BME280;2501;51.214;6.768;2022-12-20T06:03:50;101091.75;;;8.64;100.00
4972;BME280;2501;51.214;6.768;2022-12-20T06:06:18;101092.66;;;8.67;100.00
4972;BME280;2501;51.214;6.768;2022-12-20T06:08:49;101084.03;;;8.71;100.00
4972;BME280;2501;51.214;6.768;2022-12-20T06:11:18;101084.03;;;8.71;100.00
4972;BME280;2501;51.214;6.768;2022-12-20T06:13:46;101094.59;;;8.78;100.00
4972;BME280;2501;51.214;6.768;2022-12-20T06:16:15;101090.19;;;8.75;100.00
4972;BME280;2501;51.214;6.768;2022-12-20T06:18:45;101089.38;;;8.78;100.00
4972;BME280;2501;51.214;6.768;2022-12-20T06:21:13;101091.16;;;8.80;100.00
4972;BME280;2501;51.214;6.768;2022-12-20T06:23:42;101085.91;;;8.79;100.00
4972;BME280;2501;51.214;6.768;2022-12-20T06:26:13;101092.06;;;8.81;100.00
4972;BME280;2501;51.214;6.768;2022-12-20T06:28:43;101093.78;;;8.80;100.00
4972;BME280;2501;51.214;6.768;2022-12-20T06:31:16;101097.31;;;8.82;100.00
4972;BME280;2501;51.214;6.768;2022-12-20T06:33:45;101092.13;;;8.85;100.00
4972;BME280;2501;51.214;6.768;2022-12-20T06:36:13;101086.84;;;8.82;100.00
4972;BME280;2501;51.214;6.768;2022-12-20T06:38:42;101085.13;;;8.84;100.00
4972;BME280;2501;51.214;6.768;2022-12-20T06:41:13;101077.28;;;8.84;100.00
4972;BME280;2501;51.214;6.768;2022-12-20T06:43:41;101064.09;;;8.78;100.00
4972;BME280;2501;51.214;6.768;2022-12-20T06:46:09;101067.81;;;8.91;100.00
4972;BME280;2501;51.214;6.768;2022-12-20T06:48:38;101059.91;;;8.88;100.00
4972;BME280;2501;51.214;6.768;2022-12-20T06:51:07;101054.66;;;8.88;100.00
4972;BME280;2501;51.214;6.768;2022-12-20T06:53:36;101054.69;;;8.89;100.00
4972;BME280;2501;51.214;6.768;2022-12-20T06:56:05;101063.41;;;8.88;100.00
4972;BME280;2501;51.214;6.768;2022-12-20T06:58:36;101056.41;;;8.87;100.00
4972;BME280;2501;51.214;6.768;2022-12-20T07:01:04;101063.38;;;8.87;100.00
4972;BME280;2501;51.214;6.768;2022-12-20T07:03:33;101060.72;;;8.85;100.00
4972;BME280;2501;51.214;6.768;2022-12-20T07:06:02;101054.66;;;8.88;100.00
4972;BME280;2501;51.214;6.768;2022-12-20T07:08:30;101058.97;;;8.83;100.00
4972;BME280;2501;51.214;6.768;2022-12-20T07:11:02;101052.06;;;8.88;100.00
4972;BME280;2501;51.214;6.768;2022-12-20T07:13:31;101055.59;;;8.90;100.00
4972;BME280;2501;51.214;6.768;2022-12-20T07:16:03;101052.03;;;8.86;100.00
4972;BME280;2501;51.214;6.768;2022-12-20T07:18:32;101047.72;;;8.90;100.00
4972;BME280;2501;51.214;6.768;2022-12-20T07:21:03;101040.75;;;8.89;100.00
4972;BME280;2501;51.214;6.768;2022-12-20T07:23:32;101044.19;;;8.86;100.00
4972;BME280;2501;51.214;6.768;2022-12-20T07:26:01;101037.16;;;8.84;100.00
4972;BME280;2501;51.214;6.768;2022-12-20T07:28:30;101043.38;;;8.90;100.00
4972;BME280;2501;51.214;6.768;2022-12-20T07:31:00;101039.88;;;8.88;100.00
4972;BME280;2501;51.214;6.768;2022-12-20T07:33:32;101028.44;;;8.83;100.00
4972;BME280;2501;51.214;6.768;2022-12-20T07:36:02;101034.56;;;8.85;100.00
4972;BME280;2501;51.214;6.768;2022-12-20T07:38:30;101024.94;;;8.81;100.00
4972;BME280;2501;51.214;6.768;2022-12-20T07:40:59;101030.22;;;8.86;100.00
4972;BME280;2501;51.214;6.768;2022-12-20T07:43:28;101037.22;;;8.87;100.00
4972;BME280;2501;51.214;6.768;2022-12-20T07:45:56;101035.44;;;8.83;100.00
4972;BME280;2501;51.214;6.768;2022-12-20T07:48:25;101037.19;;;8.85;100.00
4972;BME280;2501;51.214;6.768;2022-12-20T07:50:59;101028.44;;;8.83;100.00
4972;BME280;2501;51.214;6.768;2022-12-20T07:53:29;101035.41;;;8.81;100.00
4972;BME280;2501;51.214;6.768;2022-12-20T07:56:00;101046.09;;;8.95;100.00
4972;BME280;2501;51.214;6.768;2022-12-20T07:58:29;101049.53;;;8.92;100.00
4972;BME280;2501;51.214;6.768;2022-12-20T08:00:59;101051.22;;;8.89;100.00
4972;BME280;2501;51.214;6.768;2022-12-20T08:03:32;101049.47;;;8.89;100.00
4972;BME280;2501;51.214;6.768;2022-12-20T08:06:07;101039.13;;;8.95;100.00
4972;BME280;2501;51.214;6.768;2022-12-20T08:08:41;101039.19;;;8.98;100.00
4972;BME280;2501;51.214;6.768;2022-12-20T08:11:10;101033.88;;;8.94;100.00
4972;BME280;2501;51.214;6.768;2022-12-20T08:13:39;101031.28;;;8.95;100.00
4972;BME280;2501;51.214;6.768;2022-12-20T08:16:07;101039.16;;;8.97;100.00
4972;BME280;2501;51.214;6.768;2022-12-20T08:18:36;101040.06;;;8.99;100.00
4972;BME280;2501;51.214;6.768;2022-12-20T08:21:07;101043.66;;;9.05;100.00
4972;BME280;2501;51.214;6.768;2022-12-20T08:23:37;101029.09;;;9.23;99.82
4972;BME280;2501;51.214;6.768;2022-12-20T08:26:05;101015.81;;;9.11;99.40
4972;BME280;2501;51.214;6.768;2022-12-20T08:28:34;101018.53;;;9.15;98.93
4972;BME280;2501;51.214;6.768;2022-12-20T08:31:05;101010.59;;;9.11;98.84
4972;BME280;2501;51.214;6.768;2022-12-20T08:33:35;101018.53;;;9.15;99.03
4972;BME280;2501;51.214;6.768;2022-12-20T08:36:10;101018.78;;;9.32;98.26
4972;BME280;2501;51.214;6.768;2022-12-20T08:38:39;101022.19;;;9.28;97.93
4972;BME280;2501;51.214;6.768;2022-12-20T08:41:10;101023.88;;;9.24;97.79
4972;BME280;2501;51.214;6.768;2022-12-20T08:43:39;101023.94;;;9.27;97.60
4972;BME280;2501;51.214;6.768;2022-12-20T08:46:09;101030.09;;;9.31;97.51
4972;BME280;2501;51.214;6.768;2022-12-20T08:48:38;101031.00;;;9.31;97.10
4972;BME280;2501;51.214;6.768;2022-12-20T08:51:10;101031.78;;;9.27;97.25
4972;BME280;2501;51.214;6.768;2022-12-20T08:53:38;101031.91;;;9.35;97.10
4972;BME280;2501;51.214;6.768;2022-12-20T08:56:09;101024.06;;;9.35;97.07
4972;BME280;2501;51.214;6.768;2022-12-20T08:58:38;101025.81;;;9.36;96.70
4972;BME280;2501;51.214;6.768;2022-12-20T09:01:09;101026.72;;;9.38;96.62
4972;BME280;2501;51.214;6.768;2022-12-20T09:03:38;101023.22;;;9.37;96.48
4972;BME280;2501;51.214;6.768;2022-12-20T09:06:11;101031.97;;;9.39;96.52
4972;BME280;2501;51.214;6.768;2022-12-20T09:08:40;101024.94;;;9.37;96.40
4972;BME280;2501;51.214;6.768;2022-12-20T09:11:12;101024.06;;;9.35;96.53
4972;BME280;2501;51.214;6.768;2022-12-20T09:13:42;101018.94;;;9.42;96.33
4972;BME280;2501;51.214;6.768;2022-12-20T09:16:13;101023.22;;;9.39;96.44
4972;BME280;2501;51.214;6.768;2022-12-20T09:18:42;101020.63;;;9.39;96.47
4972;BME280;2501;51.214;6.768;2022-12-20T09:21:13;101024.16;;;9.41;96.65
4972;BME280;2501;51.214;6.768;2022-12-20T09:23:42;101013.66;;;9.39;96.85
4972;BME280;2501;51.214;6.768;2022-12-20T09:26:12;101024.16;;;9.42;97.21
4972;BME280;2501;51.214;6.768;2022-12-20T09:28:41;101027.66;;;9.43;96.98
4972;BME280;2501;51.214;6.768;2022-12-20T09:31:11;101027.63;;;9.40;96.74
4972;BME280;2501;51.214;6.768;2022-12-20T09:33:41;101034.53;;;9.36;97.00
4972;BME280;2501;51.214;6.768;2022-12-20T09:36:13;101032.78;;;9.37;97.20
4972;BME280;2501;51.214;6.768;2022-12-20T09:38:44;101032.81;;;9.38;97.38
4972;BME280;2501;51.214;6.768;2022-12-20T09:41:25;101031.06;;;9.37;97.38
4972;BME280;2501;51.214;6.768;2022-12-20T09:43:53;101028.53;;;9.43;97.34
4972;BME280;2501;51.214;6.768;2022-12-20T09:46:23;101027.63;;;9.41;97.16
4972;BME280;2501;51.214;6.768;2022-12-20T09:48:52;101022.50;;;9.48;96.71
4972;BME280;2501;51.214;6.768;2022-12-20T09:51:40;101016.38;;;9.47;96.54
4972;BME280;2501;51.214;6.768;2022-12-20T09:54:20;101020.81;;;9.51;96.77
4972;BME280;2501;51.214;6.768;2022-12-20T09:56:57;101029.56;;;9.52;97.13
4972;BME280;2501;51.214;6.768;2022-12-20T09:59:27;101027.78;;;9.51;97.38
4972;BME280;2501;51.214;6.768;2022-12-20T10:01:56;101014.59;;;9.45;97.74
4972;BME280;2501;51.214;6.768;2022-12-20T10:04:26;101014.69;;;9.49;97.66
4972;BME280;2501;51.214;6.768;2022-12-20T10:07:18;101016.47;;;9.52;97.73
4972;BME280;2501;51.214;6.768;2022-12-20T10:10:02;101015.56;;;9.53;97.67
4972;BME280;2501;51.214;6.768;2022-12-20T10:12:39;101007.72;;;9.53;97.72
4972;BME280;2501;51.214;6.768;2022-12-20T10:15:20;101011.22;;;9.53;97.77
4972;BME280;2501;51.214;6.768;2022-12-20T10:17:58;101004.31;;;9.58;97.42
4972;BME280;2501;51.214;6.768;2022-12-20T10:20:43;100999.06;;;9.58;97.47
4972;BME280;2501;51.214;6.768;2022-12-20T10:23:20;100993.91;;;9.63;97.36
4972;BME280;2501;51.214;6.768;2022-12-20T10:25:53;101000.94;;;9.65;97.19
4972;BME280;2501;51.214;6.768;2022-12-20T10:28:25;100993.03;;;9.62;97.26
4972;BME280;2501;51.214;6.768;2022-12-20T10:30:58;100989.56;;;9.63;97.26
4972;BME280;2501;51.214;6.768;2022-12-20T10:33:27;100991.38;;;9.67;97.48
4972;BME280;2501;51.214;6.768;2022-12-20T10:36:16;100973.94;;;9.69;97.27
4972;BME280;2501;51.214;6.768;2022-12-20T10:38:49;100979.22;;;9.74;97.10
4972;BME280;2501;51.214;6.768;2022-12-20T10:41:19;100973.06;;;9.72;97.02
4972;BME280;2501;51.214;6.768;2022-12-20T10:43:51;100970.47;;;9.73;96.93
4972;BME280;2501;51.214;6.768;2022-12-20T10:46:21;100970.59;;;9.83;96.70
4972;BME280;2501;51.214;6.768;2022-12-20T10:48:50;100958.47;;;9.91;96.35
4972;BME280;2501;51.214;6.768;2022-12-20T10:51:20;100949.72;;;9.90;96.04
4972;BME280;2501;51.214;6.768;2022-12-20T10:53:54;100952.31;;;9.89;95.97
4972;BME280;2501;51.214;6.768;2022-12-20T10:56:25;100957.56;;;9.90;95.88
4972;BME280;2501;51.214;6.768;2022-12-20T10:58:57;100948.13;;;10.04;95.35
4972;BME280;2501;51.214;6.768;2022-12-20T11:01:28;100942.88;;;10.04;94.85
4972;BME280;2501;51.214;6.768;2022-12-20T11:04:00;100949.91;;;10.04;95.01
4972;BME280;2501;51.214;6.768;2022-12-20T11:06:41;100943.88;;;10.12;94.76
4972;BME280;2501;51.214;6.768;2022-12-20T11:09:29;100941.34;;;10.22;94.36
4972;BME280;2501;51.214;6.768;2022-12-20T11:12:00;100943.00;;;10.13;94.03
4972;BME280;2501;51.214;6.768;2022-12-20T11:14:30;100935.28;;;10.21;94.00
4972;BME280;2501;51.214;6.768;2022-12-20T11:17:04;100928.13;;;10.12;94.16
4972;BME280;2501;51.214;6.768;2022-12-20T11:19:57;100922.06;;;10.15;94.10
4972;BME280;2501;51.214;6.768;2022-12-20T11:22:37;100920.38;;;10.19;94.17
4972;BME280;2501;51.214;6.768;2022-12-20T11:25:22;100923.91;;;10.21;94.01
4972;BME280;2501;51.214;6.768;2022-12-20T11:28:07;100921.28;;;10.24;94.18
4972;BME280;2501;51.214;6.768;2022-12-20T11:30:42;100917.81;;;10.26;94.00
4972;BME280;2501;51.214;6.768;2022-12-20T11:33:37;100917.81;;;10.26;93.79
4972;BME280;2501;51.214;6.768;2022-12-20T11:36:13;100921.28;;;10.21;93.89
4972;BME280;2501;51.214;6.768;2022-12-20T11:38:48;100920.41;;;10.20;94.10
4972;BME280;2501;51.214;6.768;2022-12-20T11:41:27;100911.66;;;10.20;94.04
4972;BME280;2501;51.214;6.768;2022-12-20T11:44:14;100902.94;;;10.21;94.36
4972;BME280;2501;51.214;6.768;2022-12-20T11:46:59;100905.63;;;10.28;94.07
4972;BME280;2501;51.214;6.768;2022-12-20T11:49:45;100903.91;;;10.33;93.88
4972;BME280;2501;51.214;6.768;2022-12-20T11:52:24;100887.31;;;10.33;93.90
4972;BME280;2501;51.214;6.768;2022-12-20T11:55:06;100893.50;;;10.44;93.69
4972;BME280;2501;51.214;6.768;2022-12-20T11:57:43;100889.94;;;10.34;93.35
4972;BME280;2501;51.214;6.768;2022-12-20T12:00:15;100884.69;;;10.33;93.63
4972;BME280;2501;51.214;6.768;2022-12-20T12:02:47;100883.81;;;10.32;93.46
4972;BME280;2501;51.214;6.768;2022-12-20T12:05:24;100883.03;;;10.44;93.24
4972;BME280;2501;51.214;6.768;2022-12-20T12:07:57;100888.19;;;10.33;93.26
4972;BME280;2501;51.214;6.768;2022-12-20T12:10:30;100887.31;;;10.33;93.71
4972;BME280;2501;51.214;6.768;2022-12-20T12:13:10;100884.75;;;10.37;93.40
4972;BME280;2501;51.214;6.768;2022-12-20T12:15:57;100890.88;;;10.38;93.24
4972;BME280;2501;51.214;6.768;2022-12-20T12:18:30;100894.38;;;10.38;93.42
4972;BME280;2501;51.214;6.768;2022-12-20T12:21:04;100893.47;;;10.41;93.15
4972;BME280;2501;51.214;6.768;2022-12-20T12:23:45;100892.72;;;10.51;92.75
4972;BME280;2501;51.214;6.768;2022-12-20T12:26:24;100895.34;;;10.51;92.55
4972;BME280;2501;51.214;6.768;2022-12-20T12:29:01;100897.19;;;10.64;92.30
4972;BME280;2501;51.214;6.768;2022-12-20T12:31:34;100893.72;;;10.67;92.02
4972;BME280;2501;51.214;6.768;2022-12-20T12:34:08;100894.84;;;11.02;89.45
4972;BME280;2501;51.214;6.768;2022-12-20T12:37:00;100891.38;;;11.08;88.76
4972;BME280;2501;51.214;6.768;2022-12-20T12:39:48;100893.09;;;11.03;88.76
4972;BME280;2501;51.214;6.768;2022-12-20T12:45:31;100887.75;;;10.92;90.26
4972;BME280;2501;51.214;6.768;2022-12-20T12:48:10;100900.84;;;10.85;92.35
4972;BME280;2501;51.214;6.768;2022-12-20T12:50:45;100902.50;;;10.70;93.85
4972;BME280;2501;51.214;6.768;2022-12-20T12:53:16;100894.56;;;10.63;95.72
4972;BME280;2501;51.214;6.768;2022-12-20T12:55:48;100884.91;;;10.62;96.97
4972;BME280;2501;51.214;6.768;2022-12-20T12:58:41;100877.94;;;10.64;98.07
4972;BME280;2501;51.214;6.768;2022-12-20T13:01:12;100867.53;;;10.76;98.37
4972;BME280;2501;51.214;6.768;2022-12-20T13:04:22;100872.81;;;10.79;98.44
4972;BME280;2501;51.214;6.768;2022-12-20T13:07:02;100866.69;;;10.78;98.74
4972;BME280;2501;51.214;6.768;2022-12-20T13:09:41;100864.03;;;10.74;99.24
4972;BME280;2501;51.214;6.768;2022-12-20T13:18:33;100865.75;;;10.67;100.00
4972;BME280;2501;51.214;6.768;2022-12-20T13:21:27;100862.19;;;10.62;100.00
4972;BME280;2501;51.214;6.768;2022-12-20T13:27:27;100852.63;;;10.67;100.00
4972;BME280;2501;51.214;6.768;2022-12-20T13:35:56;100848.16;;;10.53;100.00
4972;BME280;2501;51.214;6.768;2022-12-20T13:38:58;100854.22;;;10.47;100.00
4972;BME280;2501;51.214;6.768;2022-12-20T13:41:36;100855.91;;;10.37;100.00
4972;BME280;2501;51.214;6.768;2022-12-20T13:44:19;100857.63;;;10.34;100.00
4972;BME280;2501;51.214;6.768;2022-12-20T13:46:59;100861.09;;;10.33;100.00
4972;BME280;2501;51.214;6.768;2022-12-20T13:49:32;100871.59;;;10.33;100.00
4972;BME280;2501;51.214;6.768;2022-12-20T13:52:21;100870.66;;;10.29;100.00
4972;BME280;2501;51.214;6.768;2022-12-20T13:54:56;100875.94;;;10.31;100.00
4972;BME280;2501;51.214;6.768;2022-12-20T13:57:28;100874.09;;;10.24;100.00
4972;BME280;2501;51.214;6.768;2022-12-20T14:00:02;100873.16;;;10.17;100.00
4972;BME280;2501;51.214;6.768;2022-12-20T14:02:34;100867.84;;;10.12;100.00